• Join FlightAware (Why Join?)
  • Login
  • US Flag 
07:19AM EDT


 

Airport Tracker/Info


-or-


 

Live Flight TrackerFlight Track Log ✈ C-GMOT ✈ 18-Jun-2013 ✈ CSR3 - CYKZ

Flight Track Log - Related Links

Times and Time Zones

All times are in EDT time to prevent confusion due to time zone crossing. See the C-GMOT flight status page for this flight to view local times or setup timezone preferences in your user account.

Time Position Orientation Groundspeed Altitude Reporting Facility
EDT Latitude Longitude Course Direction KTS MPH feet Rate Location/Type
02:17PM 46.0667 -71.9833 270° West 110 127 1,900  Level Montreal Center
02:18PM 46.0667 -72.0333 270° West 110 127 2,900 780 Climbing Montreal Center
02:19PM 46.0667 -72.0500 270° West 110 127 3,500 600 Climbing Montreal Center
02:20PM 46.0667 -72.1000 270° West 120 138 4,200 660 Climbing Montreal Center
02:21PM 46.0500 -72.1500 244° Southwest 120 138 4,900 660 Climbing Montreal Center
02:22PM 46.0500 -72.2000 270° West 130 150 5,600 660 Climbing Montreal Center
02:23PM 46.0333 -72.2500 244° Southwest 130 150 6,300 660 Climbing Montreal Center
02:24PM 46.0167 -72.3000 244° Southwest 130 150 7,000 600 Climbing Montreal Center
02:25PM 46.0167 -72.3500 270° West 120 138 7,600 600 Climbing Montreal Center
02:26PM 46.0000 -72.4000 244° Southwest 130 150 8,200 660 Climbing Montreal Center
02:27PM 45.9833 -72.4500 244° Southwest 130 150 9,000 780 Climbing Montreal Center
02:28PM 45.9667 -72.5000 244° Southwest 130 150 9,800 480 Climbing Montreal Center
02:29PM 45.9667 -72.5500 270° West 120 138 10,000 60 Climbing Montreal Center
02:30PM 45.9500 -72.5833 234° Southwest 130 150 10,000 420 Level Montreal Center
02:31PM 45.9500 -72.6333 270° West 130 150 10,900 900 Climbing Montreal Center
02:32PM 45.9333 -72.6833 244° Southwest 110 127 11,800 540 Climbing Montreal Center
02:33PM 45.9333 -72.7333 270° West 110 127 12,000 60 Climbing Montreal Center
02:34PM 45.9167 -72.7833 244° Southwest 130 150 12,000  Level Montreal Center
02:35PM 45.9000 -72.8333 244° Southwest 140 161 12,000  Level Montreal Center
02:36PM 45.8833 -72.8833 244° Southwest 150 173 12,000  Level Montreal Center
02:37PM 45.8667 -72.9333 244° Southwest 150 173 12,000  Level Montreal Center
02:38PM 45.8667 -73.0000 270° West 140 161 12,000  Level Montreal Center
02:39PM 45.8500 -73.0500 244° Southwest 140 161 12,000  Level Montreal Center
02:40PM 45.8333 -73.1000 244° Southwest 140 161 12,000  Level Montreal Center
02:41PM 45.8167 -73.1500 244° Southwest 140 161 12,000  Level Montreal Center
02:42PM 45.8167 -73.2000 270° West 140 161 12,000  Level Montreal Center
02:43PM 45.8167 -73.2667 270° West 140 161 12,000  Level Montreal Center
02:44PM 45.8000 -73.3167 244° Southwest 140 161 12,000  Level Montreal Center
02:45PM 45.7833 -73.3667 244° Southwest 140 161 12,000  Level Montreal Center
02:46PM 45.7667 -73.4167 244° Southwest 140 161 12,000  Level Montreal Center
02:47PM 45.7667 -73.4667 270° West 150 173 12,000  Level Montreal Center
02:48PM 45.7500 -73.5500 254° West 150 173 12,000  Level Montreal Center
02:49PM 45.7333 -73.5833 234° Southwest 150 173 12,000  Level Montreal Center
02:50PM 45.7167 -73.6333 244° Southwest 140 161 12,000  Level Montreal Center
02:51PM 45.7000 -73.6833 245° Southwest 140 161 12,000  Level Montreal Center
02:52PM 45.7000 -73.7333 270° West 140 161 12,000  Level Montreal Center
02:53PM 45.6833 -73.8167 254° West 140 161 12,000  Level Montreal Center
02:54PM 45.6667 -73.8500 234° Southwest 140 161 12,100  Climbing Montreal Center
02:55PM 45.6500 -73.9000 245° Southwest 140 161 12,000 -60 Descending Montreal Center
02:56PM 45.6333 -73.9500 245° Southwest 140 161 12,000  Level Montreal Center
02:57PM 45.6333 -74.0000 270° West 140 161 12,000  Level Montreal Center
02:58PM 45.6333 -74.0667 270° West 140 161 12,000  Level Montreal Center
02:59PM 45.6167 -74.1167 245° Southwest 140 161 12,000  Level Montreal Center
03:00PM 45.6000 -74.1667 245° Southwest 130 150 12,000  Level Montreal Center
03:01PM 45.5833 -74.2167 245° Southwest 130 150 12,100  Climbing Montreal Center
03:02PM 45.5667 -74.2667 245° Southwest 140 161 12,000 -60 Descending Montreal Center
03:03PM 45.5500 -74.3167 245° Southwest 140 161 12,000  Level Montreal Center
03:04PM 45.5333 -74.3667 245° Southwest 140 161 12,000  Level Montreal Center
03:05PM 45.5167 -74.4167 245° Southwest 140 161 12,000  Level Montreal Center
03:06PM 45.5000 -74.4833 250° West 140 161 12,000  Level Montreal Center
03:07PM 45.5000 -74.5333 270° West 140 161 12,000  Level Montreal Center
03:08PM 45.4833 -74.5833 245° Southwest 140 161 12,000  Level Montreal Center
03:09PM 45.4833 -74.6333 270° West 140 161 12,000  Level Montreal Center
03:10PM 45.4667 -74.7000 250° West 140 161 12,000  Level Montreal Center
03:11PM 45.4667 -74.7500 270° West 140 161 12,100  Climbing Montreal Center
03:12PM 45.4500 -74.8000 245° Southwest 140 161 12,000 -60 Descending Montreal Center
03:13PM 45.4500 -74.8500 270° West 140 161 12,000  Level Montreal Center
03:14PM 45.4333 -74.9167 250° West 140 161 12,000 -420 Level Montreal Center
03:15PM 45.4333 -74.9667 270° West 160 184 11,200 -600 Descending Montreal Center
03:16PM 45.4167 -75.0333 250° West 170 196 10,800 -540 Descending Montreal Center
03:17PM 45.4000 -75.1167 254° West 170 196 10,200 -420 Descending Montreal Center
03:18PM 45.4000 -75.1500 270° West 160 184 10,000 -120 Descending Montreal Center
03:19PM 45.3833 -75.2333 254° West 150 173 10,000  Level Montreal Center
03:20PM 45.3833 -75.2833 270° West 140 161 10,000  Level Montreal Center
03:21PM 45.3667 -75.3500 250° West 150 173 10,000  Level Montreal Center
03:22PM 45.3667 -75.4000 270° West 150 173 10,100  Climbing Montreal Center
03:23PM 45.3500 -75.4500 245° Southwest 150 173 10,100  Level Montreal Center
03:24PM 45.3500 -75.5167 270° West 150 173 10,100  Level Montreal Center
03:25PM 45.3333 -75.5667 245° Southwest 150 173 10,100  Level Montreal Center
03:26PM 45.3333 -75.6333 270° West 150 173 10,100  Level Montreal Center
03:27PM 45.3167 -75.6833 245° Southwest 150 173 10,100  Level Montreal Center
03:28PM 45.3167 -75.7333 270° West 150 173 10,100  Level Montreal Center
03:29PM 45.3000 -75.8000 250° West 150 173 10,100  Level Montreal Center
03:30PM 45.3000 -75.8500 270° West 150 173 10,100  Level Montreal Center
03:31PM 45.2833 -75.9167 250° West 150 173 10,100  Level Montreal Center
03:32PM 45.2833 -75.9667 270° West 150 173 10,100  Level Montreal Center
03:33PM 45.2667 -76.0167 245° Southwest 150 173 10,100  Level Montreal Center
03:34PM 45.2667 -76.0833 270° West 150 173 10,100  Level Montreal Center
03:35PM 45.2500 -76.1333 245° Southwest 150 173 10,100  Level Montreal Center
03:36PM 45.2333 -76.2000 250° West 150 173 10,100  Level Montreal Center
03:37PM 45.2333 -76.2500 270° West 150 173 10,100  Level Montreal Center
03:38PM 45.2167 -76.3000 245° Southwest 150 173 10,100  Level Montreal Center
03:39PM 45.1833 -76.3500 227° Southwest 150 173 10,100  Level Montreal Center
03:40PM 45.1667 -76.4167 250° West 150 173 10,100  Level Montreal Center
03:41PM 45.1500 -76.4667 245° Southwest 150 173 10,100  Level Montreal Center
03:42PM 45.1333 -76.5167 245° Southwest 150 173 10,100  Level Montreal Center
03:43PM 45.1000 -76.5667 227° Southwest 150 173 10,100  Level Montreal Center
03:44PM 45.0833 -76.6333 251° West 150 173 10,100  Level Montreal Center
03:45PM 45.0667 -76.6833 245° Southwest 160 184 10,100  Level Montreal Center
03:46PM 45.0500 -76.7333 245° Southwest 150 173 10,100  Level Montreal Center
03:47PM 45.0167 -76.7667 215° Southwest 150 173 10,100  Level Montreal Center
03:48PM 45.0000 -76.8500 254° West 150 173 10,100  Level Montreal Center
03:49PM 44.9833 -76.8833 235° Southwest 150 173 10,200  Climbing Montreal Center
03:50PM 44.9667 -76.9333 245° Southwest 160 184 10,100 -60 Descending Montreal Center
03:51PM 44.9333 -76.9833 227° Southwest 160 184 10,100  Level Montreal Center
03:52PM 44.9167 -77.0500 251° West 160 184 10,100  Level Montreal Center
03:53PM 44.9000 -77.1000 245° Southwest 160 184 10,100  Level Montreal Center
03:54PM 44.8833 -77.1500 245° Southwest 160 184 10,100  Level Montreal Center
03:55PM 44.8667 -77.2167 251° West 150 173 10,100  Level Montreal Center
03:56PM 44.8333 -77.2667 227° Southwest 160 184 10,100  Level Montreal Center
03:57PM 44.8167 -77.3167 245° Southwest 150 173 10,100  Level Montreal Center
03:58PM 44.8000 -77.3667 245° Southwest 150 173 10,100  Level Montreal Center
03:59PM 44.7667 -77.4333 235° Southwest 150 173 10,100  Level Montreal Center
04:00PM 44.7500 -77.4833 245° Southwest 150 173 10,100  Level Montreal Center
04:01PM 44.7333 -77.5167 235° Southwest 150 173 10,100  Level Montreal Center
04:02PM 44.7167 -77.5667 245° Southwest 150 173 10,100  Level Montreal Center
04:03PM 44.7000 -77.6167 245° Southwest 150 173 10,100  Level Montreal Center
04:04PM 44.6667 -77.6833 235° Southwest 160 184 10,100  Level Montreal Center
04:05PM 44.6333 -77.7333 227° Southwest 160 184 10,100  Level Montreal Center
04:06PM 44.6167 -77.7833 245° Southwest 160 184 10,100  Level Montreal Center
04:07PM 44.6000 -77.8500 251° West 160 184 10,100  Level Montreal Center
04:08PM 44.5667 -77.9000 227° Southwest 160 184 10,100  Level Montreal Center
04:09PM 44.5500 -77.9333 235° Southwest 160 184 10,100  Level Montreal Center
04:10PM 44.5333 -77.9833 245° Southwest 160 184 10,100 -60 Level Montreal Center
04:11PM 44.5167 -78.0500 251° West 160 184 10,000 -60 Descending Montreal Center
04:12PM 44.4833 -78.1000 227° Southwest 160 184 10,000  Level Montreal Center
04:13PM 44.4667 -78.1667 251° West 160 184 10,000  Level Montreal Center
04:14PM 44.4500 -78.2167 245° Southwest 150 173 10,000  Level Montreal Center
04:15PM 44.4333 -78.2667 245° Southwest 160 184 10,000  Level Montreal Center
04:16PM 44.4000 -78.3333 235° Southwest 160 184 10,000  Level Montreal Center
04:17PM 44.3833 -78.3833 245° Southwest 160 184 10,000  Level Montreal Center
04:18PM 44.3667 -78.4333 245° Southwest 160 184 10,000  Level Montreal Center
04:19PM 44.3333 -78.4667 216° Southwest 160 184 10,000  Level Montreal Center
04:20PM 44.3000 -78.5333 235° Southwest 160 184 10,000  Level Montreal Center
04:21PM 44.2833 -78.5833 245° Southwest 160 184 10,000 -300 Level Montreal Center
04:22PM 44.2500 -78.6500 235° Southwest 170 196 9,400 -600 Descending Montreal Center
04:23PM 44.2333 -78.7000 245° Southwest 180 207 8,800 -840 Descending Montreal Center
04:24PM 44.2167 -78.7667 251° West 180 207 7,800 -900 Descending Montreal Center
04:25PM 44.1833 -78.8333 235° Southwest 180 207 7,000 -960 Descending Montreal Center
04:26PM 44.1667 -78.8833 245° Southwest 180 207 5,900 -1,080 Descending Montreal Center
04:27PM 44.1333 -78.9500 235° Southwest 190 219 4,900 -900 Descending Montreal Center
04:28PM 44.1000 -79.0000 227° Southwest 180 207 4,100 -780 Descending Montreal Center
04:29PM 44.0667 -79.0333 216° Southwest 190 219 3,400 -600 Descending Montreal Center
04:30PM 44.0333 -79.1167 241° Southwest 180 207 2,900 -180 Descending Montreal Center
04:31PM 44.0000 -79.1500 216° Southwest 150 173 3,000  Climbing Toronto Center
04:32PM 43.9833 -79.2000 245° Southwest 150 173 3,000 -120 Level Toronto Center
04:33PM 43.9667 -79.2333 235° Southwest 140 161 2,800 -480 Descending Toronto Center
04:34PM 43.9333 -79.2833 227° Southwest 150 173 2,100 -420 Descending Toronto Center
04:35PM 43.9167 -79.3333 245° Southwest 140 161 2,000 -180 Descending Toronto Center
04:36PM 43.8833 -79.3500 200° South 120 138 1,800 -540 Descending Toronto Center
04:37PM 43.8667 -79.3500 180° South 100 115 1,000 -840 Descending Toronto Center
04:39PM 43.8500 -79.3667 227° Southwest  Level FlightAware Approximate